createdAt,value
2022-08-28T00:00:28.126Z,100850.00
2022-08-28T00:02:55.457Z,100850.75
2022-08-28T00:05:23.198Z,100854.00
2022-08-28T00:07:49.753Z,100866.28
2022-08-28T00:10:17.856Z,100859.94
2022-08-28T00:12:45.200Z,100861.16
2022-08-28T00:15:13.015Z,100859.94
2022-08-28T00:17:40.124Z,100867.09
2022-08-28T00:20:07.833Z,100860.75
2022-08-28T00:22:34.460Z,100862.72
2022-08-28T00:25:00.849Z,100866.28
2022-08-28T00:27:46.830Z,100866.31
2022-08-28T00:30:13.173Z,100873.06
2022-08-28T00:32:39.500Z,100869.88
2022-08-28T00:35:06.654Z,100865.91
2022-08-28T00:37:33.616Z,100870.69
2022-08-28T00:40:00.040Z,100869.91
2022-08-28T00:42:27.512Z,100875.84
2022-08-28T00:44:53.846Z,100870.69
2022-08-28T00:47:20.229Z,100873.44
2022-08-28T00:49:51.340Z,100878.59
2022-08-28T00:52:18.963Z,100872.25
2022-08-28T00:54:58.547Z,100872.28
2022-08-28T00:57:28.267Z,100872.66
2022-08-28T00:59:54.639Z,100874.63
2022-08-28T01:02:21.289Z,100865.13
2022-08-28T01:04:48.371Z,100862.75
2022-08-28T01:07:15.575Z,100859.56
2022-08-28T01:09:43.827Z,100858.41
2022-08-28T01:12:30.460Z,100860.75
2022-08-28T01:14:59.935Z,100861.13
2022-08-28T01:17:28.688Z,100860.34
2022-08-28T01:19:58.330Z,100861.91
2022-08-28T01:22:24.842Z,100861.91
2022-08-28T01:24:53.222Z,100861.06
2022-08-28T01:27:20.025Z,100857.09
2022-08-28T01:29:50.483Z,100865.09
2022-08-28T01:32:47.199Z,100865.47
2022-08-28T01:35:15.134Z,100869.84
2022-08-28T01:37:41.815Z,100867.50
2022-08-28T01:40:09.382Z,100857.56
2022-08-28T01:42:42.827Z,100858.75
2022-08-28T01:45:12.030Z,100866.69
2022-08-28T01:47:39.097Z,100867.09
2022-08-28T01:50:07.287Z,100862.34
2022-08-28T01:52:33.702Z,100862.75
2022-08-28T01:55:00.288Z,100852.06
2022-08-28T01:57:26.665Z,100866.72
2022-08-28T01:59:54.304Z,100864.72
2022-08-28T02:02:20.992Z,100865.94
2022-08-28T02:04:48.373Z,100861.16
2022-08-28T02:07:16.804Z,100860.00
2022-08-28T02:09:43.587Z,100866.72
2022-08-28T02:12:10.074Z,100863.94
2022-08-28T02:14:36.680Z,100877.03
2022-08-28T02:17:03.052Z,100880.16
2022-08-28T02:19:30.243Z,100870.66
2022-08-28T02:21:56.639Z,100870.31
2022-08-28T02:24:23.293Z,100875.06
2022-08-28T02:26:49.686Z,100870.25
2022-08-28T02:29:16.026Z,100867.88
2022-08-28T02:31:43.079Z,100863.13
2022-08-28T02:34:11.357Z,100856.00
2022-08-28T02:36:39.887Z,100861.53
2022-08-28T02:39:06.255Z,100867.50
2022-08-28T02:41:32.894Z,100859.56
2022-08-28T02:43:59.475Z,100876.22
2022-08-28T02:46:26.623Z,100872.28
2022-08-28T02:48:53.051Z,100871.88
2022-08-28T02:51:20.105Z,100865.94
2022-08-28T02:53:46.571Z,100873.84
2022-08-28T02:56:12.910Z,100869.91
2022-08-28T02:58:40.290Z,100869.88
2022-08-28T03:01:07.923Z,100867.91
2022-08-28T03:03:34.300Z,100875.44
2022-08-28T03:06:01.499Z,100875.84
2022-08-28T03:08:28.637Z,100864.34
2022-08-28T03:10:55.066Z,100870.63
2022-08-28T03:13:26.781Z,100877.78
2022-08-28T03:15:55.964Z,100876.16
2022-08-28T03:18:22.934Z,100886.53
2022-08-28T03:20:49.289Z,100880.16
2022-08-28T03:23:27.761Z,100891.63
2022-08-28T03:26:05.027Z,100885.28
2022-08-28T03:28:33.318Z,100881.69
2022-08-28T03:31:00.049Z,100881.28
2022-08-28T03:33:27.259Z,100888.84
2022-08-28T03:35:55.159Z,100892.75
2022-08-28T03:38:22.121Z,100885.22
2022-08-28T03:40:48.544Z,100887.88
2022-08-28T03:43:16.436Z,100891.88
2022-08-28T03:45:51.943Z,100893.88
2022-08-28T03:48:20.069Z,100886.22
2022-08-28T03:50:47.322Z,100885.38
2022-08-28T03:53:15.814Z,100884.91
2022-08-28T03:55:42.827Z,100889.28
2022-08-28T03:58:09.298Z,100889.34
2022-08-28T04:00:35.754Z,100882.50
2022-08-28T04:03:03.044Z,100891.53
2022-08-28T04:05:29.490Z,100886.75
2022-08-28T04:07:55.851Z,100894.63
2022-08-28T04:10:22.269Z,100897.06
2022-08-28T04:12:48.669Z,100891.06
2022-08-28T04:15:15.148Z,100899.53
2022-08-28T04:17:41.589Z,100900.94
2022-08-28T04:20:09.263Z,100907.28
2022-08-28T04:22:37.100Z,100902.28
2022-08-28T04:25:03.915Z,100907.75
2022-08-28T04:27:30.345Z,100896.72
2022-08-28T04:29:56.692Z,100909.34
2022-08-28T04:32:23.302Z,100905.56
2022-08-28T04:34:49.948Z,100908.59
2022-08-28T04:37:16.686Z,100910.25
2022-08-28T04:39:43.073Z,100909.81
2022-08-28T04:42:09.758Z,100921.31
2022-08-28T04:44:36.122Z,100917.81
2022-08-28T04:47:02.470Z,100921.06
2022-08-28T04:49:28.954Z,100926.13
2022-08-28T04:51:55.617Z,100927.97
2022-08-28T04:54:21.999Z,100934.88
2022-08-28T04:56:48.469Z,100935.28
2022-08-28T04:59:14.946Z,100935.25
2022-08-28T05:01:42.506Z,100939.25
2022-08-28T05:04:11.325Z,100946.91
2022-08-28T05:06:43.242Z,100940.22
2022-08-28T05:09:09.594Z,100942.28
2022-08-28T05:11:36.030Z,100951.81
2022-08-28T05:14:04.418Z,100942.50
2022-08-28T05:16:31.143Z,100948.25
2022-08-28T05:19:01.482Z,100952.97
2022-08-28T05:21:28.235Z,100949.94
2022-08-28T05:23:56.477Z,100946.84
2022-08-28T05:26:23.314Z,100957.84
2022-08-28T05:28:54.313Z,100954.31
2022-08-28T05:31:21.858Z,100952.72
2022-08-28T05:33:49.213Z,100954.69
2022-08-28T05:36:16.449Z,100962.25
2022-08-28T05:38:43.467Z,100966.13
2022-08-28T05:41:10.248Z,100960.25
2022-08-28T05:43:36.611Z,100963.22
2022-08-28T05:46:05.837Z,100961.72
2022-08-28T05:48:36.172Z,100960.91
2022-08-28T05:51:14.433Z,100969.28
2022-08-28T05:53:42.474Z,100967.78
2022-08-28T05:56:09.670Z,100969.88
2022-08-28T05:58:37.308Z,100963.25
2022-08-28T06:01:03.624Z,100974.69
2022-08-28T06:03:30.021Z,100976.78
2022-08-28T06:05:56.397Z,100970.44
2022-08-28T06:08:23.225Z,100974.44
2022-08-28T06:10:50.525Z,100972.00
2022-08-28T06:13:17.474Z,100970.06
2022-08-28T06:15:46.078Z,100969.78
2022-08-28T06:18:12.961Z,100966.72
2022-08-28T06:20:44.152Z,100966.78
2022-08-28T06:23:11.342Z,100969.53
2022-08-28T06:25:41.599Z,100967.53
2022-08-28T06:28:10.401Z,100975.94
2022-08-28T06:30:37.324Z,100979.47
2022-08-28T06:33:06.994Z,100981.47
2022-08-28T06:35:34.404Z,100975.56
2022-08-28T06:38:00.900Z,100975.19
2022-08-28T06:40:27.327Z,100976.34
2022-08-28T06:42:53.723Z,100980.44
2022-08-28T06:45:20.111Z,100986.00
2022-08-28T06:47:47.216Z,100991.59
2022-08-28T06:50:16.327Z,100993.03
2022-08-28T06:52:42.678Z,101002.88
2022-08-28T06:55:09.242Z,101003.31
2022-08-28T06:57:37.428Z,101014.06
2022-08-28T07:00:04.263Z,101003.03
2022-08-28T07:02:30.722Z,101009.22
2022-08-28T07:04:57.118Z,101018.00
2022-08-28T07:07:31.511Z,101004.41
2022-08-28T07:09:58.908Z,101009.53
2022-08-28T07:12:25.270Z,101011.69
2022-08-28T07:14:51.614Z,101009.13
2022-08-28T07:17:18.056Z,101015.91
2022-08-28T07:19:44.437Z,101019.13
2022-08-28T07:22:10.873Z,101024.25
2022-08-28T07:24:37.240Z,101024.41
2022-08-28T07:27:05.455Z,101026.25
2022-08-28T07:29:31.866Z,101026.31
2022-08-28T07:31:58.951Z,101027.78
2022-08-28T07:34:27.279Z,101023.63
2022-08-28T07:36:53.941Z,101025.41
2022-08-28T07:39:20.412Z,101033.34
2022-08-28T07:41:47.376Z,101038.09
2022-08-28T07:44:33.484Z,101046.69
2022-08-28T07:47:03.911Z,101052.19
2022-08-28T07:49:31.340Z,101063.78
2022-08-28T07:51:57.741Z,101063.72
2022-08-28T07:54:24.227Z,101067.25
2022-08-28T07:56:51.003Z,101063.41
2022-08-28T07:59:19.187Z,101058.63
2022-08-28T08:01:46.959Z,101062.75
2022-08-28T08:04:14.022Z,101065.91
2022-08-28T08:06:41.314Z,101065.13
2022-08-28T08:09:08.807Z,101067.56
2022-08-28T08:11:35.193Z,101059.22
2022-08-28T08:14:05.990Z,101062.50
2022-08-28T08:16:38.618Z,101063.72
2022-08-28T08:19:05.570Z,101063.72
2022-08-28T08:21:32.631Z,101060.88
2022-08-28T08:23:59.337Z,101067.22
2022-08-28T08:26:29.758Z,101066.78
2022-08-28T08:28:59.539Z,101078.00
2022-08-28T08:31:27.550Z,101067.66
2022-08-28T08:33:55.770Z,101079.97
2022-08-28T08:36:23.100Z,101078.78
2022-08-28T08:38:49.814Z,101082.69
2022-08-28T08:41:29.251Z,101093.41
2022-08-28T08:43:59.339Z,101083.06
2022-08-28T08:46:31.016Z,101095.75
2022-08-28T08:49:01.727Z,101093.41
2022-08-28T08:51:35.412Z,101089.00
2022-08-28T08:54:08.618Z,101100.88
2022-08-28T08:56:35.386Z,101096.88
2022-08-28T08:59:03.032Z,101090.13
2022-08-28T09:01:39.020Z,101093.38
2022-08-28T09:04:24.651Z,101091.69
2022-08-28T09:06:57.144Z,101096.91
2022-08-28T09:09:23.470Z,101098.53
2022-08-28T09:12:00.985Z,101102.16
2022-08-28T09:15:05.419Z,101094.97
2022-08-28T09:17:34.293Z,101103.22
2022-08-28T09:20:00.609Z,101103.69
2022-08-28T09:22:27.023Z,101112.44
2022-08-28T09:24:53.585Z,101110.31
2022-08-28T09:27:27.788Z,101111.25
2022-08-28T09:29:58.864Z,101113.50
2022-08-28T09:32:32.081Z,101110.75
2022-08-28T09:35:06.316Z,101103.22
2022-08-28T09:37:34.483Z,101109.97
2022-08-28T09:40:21.315Z,101114.06
2022-08-28T09:43:19.166Z,101112.88
2022-08-28T09:45:50.984Z,101106.97
2022-08-28T09:48:19.820Z,101116.56
2022-08-28T09:50:57.564Z,101115.38
2022-08-28T09:53:24.060Z,101113.41
2022-08-28T09:55:59.968Z,101119.41
2022-08-28T09:58:35.345Z,101121.28
2022-08-28T10:01:22.056Z,101121.00
2022-08-28T10:03:51.558Z,101125.69
2022-08-28T10:06:20.937Z,101121.72
2022-08-28T10:08:54.872Z,101126.38
2022-08-28T10:11:36.853Z,101124.41
2022-08-28T10:14:26.407Z,101132.00
2022-08-28T10:16:59.815Z,101129.31
2022-08-28T10:19:41.737Z,101129.25
2022-08-28T10:22:15.296Z,101126.91
2022-08-28T10:24:44.753Z,101126.44
2022-08-28T10:27:17.314Z,101130.75
2022-08-28T10:29:51.851Z,101130.38
2022-08-28T10:32:21.341Z,101139.81
2022-08-28T10:34:50.720Z,101134.63
2022-08-28T10:37:41.707Z,101143.00
2022-08-28T10:40:11.433Z,101141.72
2022-08-28T10:42:43.875Z,101138.59
2022-08-28T10:45:15.073Z,101145.75
2022-08-28T10:47:45.035Z,101137.47
2022-08-28T10:50:22.267Z,101147.25
2022-08-28T10:52:54.904Z,101145.75
2022-08-28T10:55:24.053Z,101143.72
2022-08-28T10:58:04.613Z,101144.13
2022-08-28T11:00:48.537Z,101146.63
2022-08-28T11:03:33.422Z,101151.78
2022-08-28T11:06:04.155Z,101147.00
2022-08-28T11:08:32.655Z,101151.06
2022-08-28T11:11:00.543Z,101158.88
2022-08-28T11:13:46.632Z,101163.59
2022-08-28T11:16:18.678Z,101157.22
2022-08-28T11:18:57.106Z,101156.88
2022-08-28T11:21:23.480Z,101164.50
2022-08-28T11:23:55.861Z,101167.75
2022-08-28T11:26:30.330Z,101173.72
2022-08-28T11:28:58.883Z,101169.31
2022-08-28T11:31:28.992Z,101175.72
2022-08-28T11:33:58.913Z,101172.88
2022-08-28T11:36:28.208Z,101180.47
2022-08-28T11:38:54.570Z,101178.94
2022-08-28T11:41:27.381Z,101180.09
2022-08-28T11:43:59.680Z,101182.91
2022-08-28T11:46:30.303Z,101190.75
2022-08-28T11:48:58.344Z,101185.97
2022-08-28T11:51:35.701Z,101195.16
2022-08-28T11:54:21.137Z,101197.97
2022-08-28T11:56:50.427Z,101189.59
2022-08-28T11:59:19.618Z,101191.50
2022-08-28T12:01:48.698Z,101199.09
2022-08-28T12:04:17.602Z,101192.03
2022-08-28T12:06:48.643Z,101190.44
2022-08-28T12:09:33.533Z,101180.09
2022-08-28T12:12:01.984Z,101180.97
2022-08-28T12:14:28.333Z,101178.97
2022-08-28T12:17:00.888Z,101174.56
2022-08-28T12:19:40.240Z,101173.75
2022-08-28T12:22:11.140Z,101173.75
2022-08-28T12:24:45.438Z,101178.97
2022-08-28T12:27:12.068Z,101161.81
2022-08-28T12:29:46.190Z,101174.56
2022-08-28T12:32:28.885Z,101169.78
2022-08-28T12:34:58.389Z,101167.41
2022-08-28T12:37:24.743Z,101174.16
2022-08-28T12:39:52.090Z,101166.28
2022-08-28T12:42:20.200Z,101169.84
2022-08-28T12:44:47.135Z,101155.63
2022-08-28T12:47:18.870Z,101171.88
2022-08-28T12:49:45.394Z,101157.63
2022-08-28T12:52:18.021Z,101156.00
2022-08-28T12:54:46.727Z,101160.41
2022-08-28T12:57:14.342Z,101150.50
2022-08-28T12:59:42.185Z,101153.31
2022-08-28T13:02:24.863Z,101154.09
2022-08-28T13:04:51.863Z,101147.03
2022-08-28T13:07:18.426Z,101146.63
2022-08-28T13:09:47.182Z,101148.59
2022-08-28T13:12:18.480Z,101146.25
2022-08-28T13:14:46.105Z,101141.84
2022-08-28T13:17:13.941Z,101139.50
2022-08-28T13:19:40.372Z,101136.72
2022-08-28T13:22:09.211Z,101140.28
2022-08-28T13:24:35.560Z,101135.53
2022-08-28T13:27:04.495Z,101137.13
2022-08-28T13:29:31.833Z,101135.94
2022-08-28T13:32:02.981Z,101132.38
2022-08-28T13:34:33.789Z,101121.63
2022-08-28T13:37:01.967Z,101124.41
2022-08-28T13:39:31.875Z,101131.16
2022-08-28T13:42:17.866Z,101130.78
2022-08-28T13:44:47.681Z,101128.38
2022-08-28T13:47:14.163Z,101120.84
2022-08-28T13:49:40.523Z,101126.81
2022-08-28T13:52:07.533Z,101128.00
2022-08-28T13:54:36.325Z,101124.44
2022-08-28T13:57:03.273Z,101121.66
2022-08-28T13:59:30.256Z,101126.41
2022-08-28T14:02:17.054Z,101125.59
2022-08-28T14:04:44.791Z,101126.00
2022-08-28T14:07:14.179Z,101124.41
2022-08-28T14:09:41.041Z,101122.00
2022-08-28T14:12:08.560Z,101121.25
2022-08-28T14:14:35.555Z,101119.25
2022-08-28T14:17:02.233Z,101116.47
2022-08-28T14:19:29.253Z,101108.53
2022-08-28T14:21:55.784Z,101111.69
2022-08-28T14:24:22.462Z,101115.31
2022-08-28T14:26:51.349Z,101118.88
2022-08-28T14:29:17.825Z,101112.88
2022-08-28T14:31:44.746Z,101119.63
2022-08-28T14:34:12.783Z,101111.69
2022-08-28T14:36:39.829Z,101122.00
2022-08-28T14:39:07.075Z,101121.59
2022-08-28T14:41:34.350Z,101123.22
2022-08-28T14:44:01.210Z,101120.03
2022-08-28T14:46:31.849Z,101127.94
2022-08-28T14:48:59.325Z,101122.75
2022-08-28T14:51:25.976Z,101124.72
2022-08-28T14:53:52.618Z,101132.66
2022-08-28T14:56:19.637Z,101126.69
2022-08-28T14:58:46.157Z,101135.75
2022-08-28T15:01:23.418Z,101139.66
2022-08-28T15:03:49.977Z,101132.56
2022-08-28T15:06:17.123Z,101138.50
2022-08-28T15:08:43.761Z,101139.28
2022-08-28T15:11:14.261Z,101142.47
2022-08-28T15:13:45.694Z,101144.06
2022-08-28T15:16:15.624Z,101141.28
2022-08-28T15:18:42.996Z,101142.44
2022-08-28T15:21:19.782Z,101141.69
2022-08-28T15:23:46.332Z,101150.41
2022-08-28T15:26:15.566Z,101149.59
2022-08-28T15:28:42.135Z,101142.88
2022-08-28T15:31:08.578Z,101135.47
2022-08-28T15:33:35.073Z,101133.09
2022-08-28T15:36:01.550Z,101137.03
2022-08-28T15:38:28.002Z,101146.13
2022-08-28T15:41:13.040Z,101133.03
2022-08-28T15:43:39.371Z,101144.13
2022-08-28T15:46:10.334Z,101140.94
2022-08-28T15:48:36.753Z,101139.41
2022-08-28T15:51:04.235Z,101144.56
2022-08-28T15:53:30.590Z,101149.72
2022-08-28T15:55:56.960Z,101146.13
2022-08-28T15:58:23.346Z,101144.16
2022-08-28T16:00:49.965Z,101137.47
2022-08-28T16:03:16.363Z,101148.16
2022-08-28T16:05:44.814Z,101143.78
2022-08-28T16:08:11.156Z,101143.44
2022-08-28T16:10:38.176Z,101156.13
2022-08-28T16:13:06.527Z,101146.59
2022-08-28T16:15:33.595Z,101155.31
2022-08-28T16:17:59.975Z,101137.50
2022-08-28T16:20:26.395Z,101148.19
2022-08-28T16:22:52.990Z,101157.34
2022-08-28T16:25:19.650Z,101148.97
2022-08-28T16:27:46.016Z,101155.28
2022-08-28T16:30:15.693Z,101151.72
2022-08-28T16:32:59.039Z,101144.50
2022-08-28T16:35:25.367Z,101148.44
2022-08-28T16:37:51.833Z,101152.03
2022-08-28T16:40:18.345Z,101152.81
2022-08-28T16:42:51.851Z,101152.06
2022-08-28T16:45:18.746Z,101155.59
2022-08-28T16:47:45.144Z,101162.34
2022-08-28T16:50:12.289Z,101163.53
2022-08-28T16:52:39.098Z,101158.34
2022-08-28T16:55:06.697Z,101167.47
2022-08-28T16:57:33.127Z,101167.09
2022-08-28T17:00:00.397Z,101172.66
2022-08-28T17:02:27.542Z,101177.41
2022-08-28T17:04:54.859Z,101173.44
2022-08-28T17:07:21.818Z,101181.41
2022-08-28T17:09:48.188Z,101185.38
2022-08-28T17:12:14.750Z,101185.41
2022-08-28T17:14:41.821Z,101190.56
2022-08-28T17:17:08.188Z,101185.44
2022-08-28T17:19:34.596Z,101185.06
2022-08-28T17:22:19.679Z,101182.72
2022-08-28T17:24:46.789Z,101195.81
2022-08-28T17:27:22.770Z,101195.41
2022-08-28T17:29:50.209Z,101197.44
2022-08-28T17:32:16.599Z,101201.78
2022-08-28T17:34:42.979Z,101195.06
2022-08-28T17:37:10.955Z,101201.41
2022-08-28T17:39:37.641Z,101198.63
2022-08-28T17:42:04.290Z,101199.41
2022-08-28T17:44:30.707Z,101203.00
2022-08-28T17:46:57.277Z,101206.19
2022-08-28T17:49:23.651Z,101206.56
2022-08-28T17:51:51.012Z,101209.75
2022-08-28T17:54:18.744Z,101209.31
2022-08-28T17:56:46.373Z,101215.28
2022-08-28T17:59:13.224Z,101214.91
2022-08-28T18:01:40.991Z,101217.66
2022-08-28T18:04:08.827Z,101220.00
2022-08-28T18:06:35.522Z,101226.78
2022-08-28T18:09:01.902Z,101232.31
2022-08-28T18:11:28.512Z,101229.91
2022-08-28T18:13:55.107Z,101227.53
2022-08-28T18:16:21.611Z,101236.25
2022-08-28T18:18:48.239Z,101237.91
2022-08-28T18:21:14.990Z,101235.91
2022-08-28T18:23:41.396Z,101228.72
2022-08-28T18:26:08.313Z,101236.25
2022-08-28T18:28:34.747Z,101235.84
2022-08-28T18:31:01.331Z,101244.59
2022-08-28T18:33:27.847Z,101240.94
2022-08-28T18:35:54.345Z,101239.34
2022-08-28T18:38:22.149Z,101250.44
2022-08-28T18:40:49.827Z,101248.47
2022-08-28T18:43:20.108Z,101245.25
2022-08-28T18:45:46.706Z,101243.25
2022-08-28T18:48:13.313Z,101252.75
2022-08-28T18:50:42.231Z,101247.94
2022-08-28T18:53:12.239Z,101247.97
2022-08-28T18:55:38.739Z,101247.72
2022-08-28T18:58:05.190Z,101244.53
2022-08-28T19:00:33.776Z,101241.22
2022-08-28T19:03:00.389Z,101232.72
2022-08-28T19:05:26.985Z,101237.78
2022-08-28T19:07:53.447Z,101232.47
2022-08-28T19:10:32.487Z,101230.53
2022-08-28T19:13:01.009Z,101235.31
2022-08-28T19:15:28.255Z,101237.56
2022-08-28T19:17:54.687Z,101229.19
2022-08-28T19:20:21.330Z,101226.75
2022-08-28T19:22:48.776Z,101225.94
2022-08-28T19:25:27.597Z,101231.00
2022-08-28T19:27:54.774Z,101239.03
2022-08-28T19:30:25.327Z,101233.16
2022-08-28T19:32:51.834Z,101233.84
2022-08-28T19:35:18.345Z,101235.66
2022-08-28T19:37:45.058Z,101229.13
2022-08-28T19:40:11.858Z,101237.19
2022-08-28T19:42:38.459Z,101234.06
2022-08-28T19:45:09.269Z,101244.47
2022-08-28T19:47:36.152Z,101245.72
2022-08-28T19:50:02.879Z,101243.66
2022-08-28T19:52:29.689Z,101240.44
2022-08-28T19:54:56.100Z,101250.53
2022-08-28T19:57:22.517Z,101248.72
2022-08-28T19:59:48.937Z,101242.41
2022-08-28T20:02:15.364Z,101250.00
2022-08-28T20:04:41.769Z,101247.50
2022-08-28T20:07:08.300Z,101252.84
2022-08-28T20:09:34.655Z,101250.50
2022-08-28T20:12:01.336Z,101247.94
2022-08-28T20:14:27.765Z,101246.00
2022-08-28T20:16:54.518Z,101254.84
2022-08-28T20:19:22.572Z,101256.22
2022-08-28T20:21:50.043Z,101258.56
2022-08-28T20:24:21.999Z,101252.78
2022-08-28T20:26:49.203Z,101245.81
2022-08-28T20:29:15.879Z,101252.13
2022-08-28T20:31:44.769Z,101254.50
2022-08-28T20:34:12.231Z,101257.34
2022-08-28T20:36:38.954Z,101257.44
2022-08-28T20:39:07.243Z,101264.94
2022-08-28T20:41:34.126Z,101251.31
2022-08-28T20:44:06.199Z,101257.44
2022-08-28T20:46:37.050Z,101266.91
2022-08-28T20:49:06.386Z,101257.31
2022-08-28T20:51:51.474Z,101254.94
2022-08-28T20:54:19.404Z,101257.47
2022-08-28T20:56:45.758Z,101255.81
2022-08-28T20:59:12.574Z,101261.50
2022-08-28T21:01:39.012Z,101260.22
2022-08-28T21:04:05.649Z,101264.66
2022-08-28T21:06:32.496Z,101268.69
2022-08-28T21:08:59.334Z,101264.00
2022-08-28T21:11:26.101Z,101266.78
2022-08-28T21:13:52.585Z,101272.16
2022-08-28T21:16:19.091Z,101269.28
2022-08-28T21:19:12.111Z,101267.59
2022-08-28T21:21:33.545Z,101258.75
2022-08-28T21:23:59.943Z,101266.56
2022-08-28T21:26:26.330Z,101270.91
2022-08-28T21:28:53.163Z,101263.44
2022-08-28T21:31:20.746Z,101265.63
2022-08-28T21:33:47.458Z,101259.28
2022-08-28T21:36:17.074Z,101264.47
2022-08-28T21:38:44.823Z,101257.44
2022-08-28T21:41:12.856Z,101270.84
2022-08-28T21:43:40.052Z,101273.91
2022-08-28T21:46:06.754Z,101272.31
2022-08-28T21:48:38.302Z,101276.66
2022-08-28T21:51:08.778Z,101273.81
2022-08-28T21:53:35.810Z,101274.75
2022-08-28T21:56:02.697Z,101277.91
2022-08-28T21:58:29.329Z,101284.41
2022-08-28T22:00:59.184Z,101284.56
2022-08-28T22:03:26.696Z,101279.41
2022-08-28T22:05:54.272Z,101285.56
2022-08-28T22:08:22.366Z,101287.00
2022-08-28T22:10:48.803Z,101290.53
2022-08-28T22:13:15.799Z,101286.19
2022-08-28T22:15:43.602Z,101286.06
2022-08-28T22:18:10.912Z,101284.88
2022-08-28T22:20:58.220Z,101282.97
2022-08-28T22:23:24.864Z,101286.28
2022-08-28T22:25:51.251Z,101282.50
2022-08-28T22:28:17.632Z,101288.75
2022-08-28T22:30:44.004Z,101290.97
2022-08-28T22:33:10.758Z,101290.47
2022-08-28T22:35:37.799Z,101282.41
2022-08-28T22:38:04.147Z,101286.78
2022-08-28T22:40:30.576Z,101289.56
2022-08-28T22:42:57.323Z,101287.44
2022-08-28T22:45:23.733Z,101285.97
2022-08-28T22:47:52.552Z,101289.03
2022-08-28T22:50:19.377Z,101285.28
2022-08-28T22:52:46.739Z,101288.53
2022-08-28T22:55:13.785Z,101291.28
2022-08-28T22:57:40.340Z,101292.41
2022-08-28T23:00:08.026Z,101281.56
2022-08-28T23:02:34.833Z,101281.53
2022-08-28T23:05:01.245Z,101288.22
2022-08-28T23:07:27.597Z,101289.16
2022-08-28T23:09:54.022Z,101280.19
2022-08-28T23:12:20.382Z,101277.38
2022-08-28T23:14:48.701Z,101280.09
2022-08-28T23:17:15.460Z,101274.63
2022-08-28T23:19:43.636Z,101277.03
2022-08-28T23:22:12.912Z,101278.78
2022-08-28T23:24:39.287Z,101280.88
2022-08-28T23:27:32.533Z,101280.25
2022-08-28T23:29:53.235Z,101276.44
2022-08-28T23:32:19.947Z,101282.31
2022-08-28T23:34:46.395Z,101283.34
2022-08-28T23:37:12.832Z,101275.41
2022-08-28T23:39:39.222Z,101273.00
2022-08-28T23:42:05.701Z,101284.75
2022-08-28T23:44:32.173Z,101277.84
2022-08-28T23:46:58.657Z,101274.50
2022-08-28T23:49:27.058Z,101270.94
2022-08-28T23:51:53.565Z,101274.31
2022-08-28T23:54:19.933Z,101274.28
2022-08-28T23:56:46.365Z,101271.28
2022-08-28T23:59:12.938Z,101270.84
